sensor_id;sensor_type;location;lat;lon;timestamp;pressure;altitude;pressure_sealevel;temperature;humidity
69713;BME280;56980;51.826;4.424;2022-07-04T00:00:23;102162.56;;;18.06;66.60
69713;BME280;56980;51.826;4.424;2022-07-04T00:02:49;102161.81;;;18.05;66.59
69713;BME280;56980;51.826;4.424;2022-07-04T00:05:15;102164.28;;;18.03;66.45
69713;BME280;56980;51.826;4.424;2022-07-04T00:07:48;102160.91;;;18.08;66.09
69713;BME280;56980;51.826;4.424;2022-07-04T00:10:17;102147.19;;;17.99;66.73
69713;BME280;56980;51.826;4.424;2022-07-04T00:12:43;102150.53;;;17.94;66.54
69713;BME280;56980;51.826;4.424;2022-07-04T00:15:10;102159.25;;;18.02;66.80
69713;BME280;56980;51.826;4.424;2022-07-04T00:17:36;102150.53;;;17.94;67.02
69713;BME280;56980;51.826;4.424;2022-07-04T00:20:03;102142.63;;;17.96;66.81
69713;BME280;56980;51.826;4.424;2022-07-04T00:22:29;102142.31;;;17.85;66.64
69713;BME280;56980;51.826;4.424;2022-07-04T00:24:55;102142.59;;;17.78;67.29
69713;BME280;56980;51.826;4.424;2022-07-04T00:27:20;102140.47;;;17.73;67.60
69713;BME280;56980;51.826;4.424;2022-07-04T00:29:45;102147.78;;;17.85;67.33
69713;BME280;56980;51.826;4.424;2022-07-04T00:32:11;102131.94;;;17.80;67.07
69713;BME280;56980;51.826;4.424;2022-07-04T00:34:36;102151.44;;;17.82;67.28
69713;BME280;56980;51.826;4.424;2022-07-04T00:37:02;102149.28;;;17.68;67.50
69713;BME280;56980;51.826;4.424;2022-07-04T00:39:28;102140.63;;;17.69;67.32
69713;BME280;56980;51.826;4.424;2022-07-04T00:41:53;102144.28;;;17.75;67.66
69713;BME280;56980;51.826;4.424;2022-07-04T00:44:18;102132.84;;;17.68;67.68
69713;BME280;56980;51.826;4.424;2022-07-04T00:46:45;102146.56;;;17.68;67.55
69713;BME280;56980;51.826;4.424;2022-07-04T00:49:13;102143.22;;;17.64;67.88
69713;BME280;56980;51.826;4.424;2022-07-04T00:51:39;102141.69;;;17.63;67.63
69713;BME280;56980;51.826;4.424;2022-07-04T00:54:07;102136.28;;;17.59;67.46
69713;BME280;56980;51.826;4.424;2022-07-04T00:56:35;102145.34;;;17.69;67.84
69713;BME280;56980;51.826;4.424;2022-07-04T00:59:01;102120.78;;;17.56;67.98
69713;BME280;56980;51.826;4.424;2022-07-04T01:01:26;102134.38;;;17.69;67.96
69713;BME280;56980;51.826;4.424;2022-07-04T01:03:53;102123.97;;;17.55;67.87
69713;BME280;56980;51.826;4.424;2022-07-04T01:06:19;102142.28;;;17.67;68.11
69713;BME280;56980;51.826;4.424;2022-07-04T01:08:45;102143.81;;;17.68;68.36
69713;BME280;56980;51.826;4.424;2022-07-04T01:11:12;102136.66;;;17.61;68.15
69713;BME280;56980;51.826;4.424;2022-07-04T01:13:37;102127.97;;;17.63;67.86
69713;BME280;56980;51.826;4.424;2022-07-04T01:16:04;102091.81;;;17.37;67.96
69713;BME280;56980;51.826;4.424;2022-07-04T01:18:30;102136.19;;;17.63;68.39
69713;BME280;56980;51.826;4.424;2022-07-04T01:20:56;102137.72;;;17.64;68.36
69713;BME280;56980;51.826;4.424;2022-07-04T01:23:22;102130.41;;;17.61;68.56
69713;BME280;56980;51.826;4.424;2022-07-04T01:25:48;102128.84;;;17.60;68.93
69713;BME280;56980;51.826;4.424;2022-07-04T01:28:18;102114.50;;;17.47;68.80
69713;BME280;56980;51.826;4.424;2022-07-04T01:30:44;102129.59;;;17.60;68.66
69713;BME280;56980;51.826;4.424;2022-07-04T01:33:10;102122.94;;;17.61;69.21
69713;BME280;56980;51.826;4.424;2022-07-04T01:35:35;102127.78;;;17.57;69.60
69713;BME280;56980;51.826;4.424;2022-07-04T01:38:01;102118.16;;;17.53;69.19
69713;BME280;56980;51.826;4.424;2022-07-04T01:40:26;102085.84;;;17.29;69.64
69713;BME280;56980;51.826;4.424;2022-07-04T01:42:52;102095.47;;;17.43;69.80
69713;BME280;56980;51.826;4.424;2022-07-04T01:45:18;102123.66;;;17.53;69.60
69713;BME280;56980;51.826;4.424;2022-07-04T01:47:44;102127.91;;;17.54;70.01
69713;BME280;56980;51.826;4.424;2022-07-04T01:50:10;102116.78;;;17.48;69.95
69713;BME280;56980;51.826;4.424;2022-07-04T01:52:39;102103.50;;;17.28;70.50
69713;BME280;56980;51.826;4.424;2022-07-04T01:55:05;102122.28;;;17.48;70.43
69713;BME280;56980;51.826;4.424;2022-07-04T01:57:30;102115.41;;;17.43;70.89
69713;BME280;56980;51.826;4.424;2022-07-04T01:59:56;102080.94;;;17.24;70.80
69713;BME280;56980;51.826;4.424;2022-07-04T02:02:40;102099.84;;;17.31;71.01
69713;BME280;56980;51.826;4.424;2022-07-04T02:05:05;102066.31;;;17.18;70.88
69713;BME280;56980;51.826;4.424;2022-07-04T02:07:31;102077.00;;;17.25;70.57
69713;BME280;56980;51.826;4.424;2022-07-04T02:09:56;102105.03;;;17.38;71.06
69713;BME280;56980;51.826;4.424;2022-07-04T02:12:22;102106.44;;;17.43;70.68
69713;BME280;56980;51.826;4.424;2022-07-04T02:15:06;102100.59;;;17.32;71.00
69713;BME280;56980;51.826;4.424;2022-07-04T02:17:32;102112.03;;;17.39;70.99
69713;BME280;56980;51.826;4.424;2022-07-04T02:19:57;102109.16;;;17.34;71.71
69713;BME280;56980;51.826;4.424;2022-07-04T02:22:22;102113.25;;;17.38;70.79
69713;BME280;56980;51.826;4.424;2022-07-04T02:24:48;102088.88;;;17.22;70.90
69713;BME280;56980;51.826;4.424;2022-07-04T02:27:13;102112.03;;;17.39;70.53
69713;BME280;56980;51.826;4.424;2022-07-04T02:29:40;102106.25;;;17.28;70.36
69713;BME280;56980;51.826;4.424;2022-07-04T02:32:05;102110.78;;;17.22;70.93
69713;BME280;56980;51.826;4.424;2022-07-04T02:34:31;102093.00;;;17.27;70.67
69713;BME280;56980;51.826;4.424;2022-07-04T02:36:56;102075.31;;;17.10;70.72
69713;BME280;56980;51.826;4.424;2022-07-04T02:39:22;102099.22;;;17.27;70.49
69713;BME280;56980;51.826;4.424;2022-07-04T02:41:47;102088.56;;;17.20;70.73
69713;BME280;56980;51.826;4.424;2022-07-04T02:44:13;102091.88;;;17.06;71.57
69713;BME280;56980;51.826;4.424;2022-07-04T02:46:38;102100.69;;;17.01;71.72
69713;BME280;56980;51.826;4.424;2022-07-04T02:49:03;102114.09;;;17.08;71.69
69713;BME280;56980;51.826;4.424;2022-07-04T02:51:29;102088.78;;;16.95;71.27
69713;BME280;56980;51.826;4.424;2022-07-04T02:53:55;102107.84;;;17.08;71.41
69713;BME280;56980;51.826;4.424;2022-07-04T02:56:20;102118.19;;;17.03;71.81
69713;BME280;56980;51.826;4.424;2022-07-04T02:58:46;102095.53;;;17.03;71.21
69713;BME280;56980;51.826;4.424;2022-07-04T03:01:11;102108.94;;;16.79;72.64
69713;BME280;56980;51.826;4.424;2022-07-04T03:03:38;102105.84;;;16.99;71.80
69713;BME280;56980;51.826;4.424;2022-07-04T03:06:05;102109.78;;;16.98;71.36
69713;BME280;56980;51.826;4.424;2022-07-04T03:08:31;102105.22;;;17.04;71.28
69713;BME280;56980;51.826;4.424;2022-07-04T03:10:56;102092.50;;;16.79;72.34
69713;BME280;56980;51.826;4.424;2022-07-04T03:13:21;102109.03;;;16.67;73.67
69713;BME280;56980;51.826;4.424;2022-07-04T03:15:47;102094.47;;;16.70;73.31
69713;BME280;56980;51.826;4.424;2022-07-04T03:18:12;102091.13;;;16.75;72.75
69713;BME280;56980;51.826;4.424;2022-07-04T03:20:38;102107.63;;;16.93;72.54
69713;BME280;56980;51.826;4.424;2022-07-04T03:23:03;102102.00;;;16.87;73.07
69713;BME280;56980;51.826;4.424;2022-07-04T03:25:29;102090.88;;;16.82;72.62
69713;BME280;56980;51.826;4.424;2022-07-04T03:27:54;102108.34;;;16.84;72.64
69713;BME280;56980;51.826;4.424;2022-07-04T03:30:19;102122.97;;;16.90;72.33
69713;BME280;56980;51.826;4.424;2022-07-04T03:32:45;102135.94;;;16.90;72.58
69713;BME280;56980;51.826;4.424;2022-07-04T03:35:10;102114.75;;;16.90;72.58
69713;BME280;56980;51.826;4.424;2022-07-04T03:37:36;102128.94;;;16.98;72.50
69713;BME280;56980;51.826;4.424;2022-07-04T03:40:01;102123.72;;;16.82;73.38
69713;BME280;56980;51.826;4.424;2022-07-04T03:42:27;102113.53;;;16.82;72.53
69713;BME280;56980;51.826;4.424;2022-07-04T03:44:52;102126.47;;;16.91;72.25
69713;BME280;56980;51.826;4.424;2022-07-04T03:47:18;102127.34;;;16.79;72.35
69713;BME280;56980;51.826;4.424;2022-07-04T03:49:43;102133.25;;;16.77;72.86
69713;BME280;56980;51.826;4.424;2022-07-04T03:52:08;102134.88;;;16.66;73.07
69713;BME280;56980;51.826;4.424;2022-07-04T03:54:34;102109.16;;;16.41;73.30
69713;BME280;56980;51.826;4.424;2022-07-04T03:56:59;102132.38;;;16.58;73.03
69713;BME280;56980;51.826;4.424;2022-07-04T03:59:24;102147.09;;;16.74;73.14
69713;BME280;56980;51.826;4.424;2022-07-04T04:01:50;102110.63;;;16.55;72.51
69713;BME280;56980;51.826;4.424;2022-07-04T04:04:15;102143.72;;;16.48;73.80
69713;BME280;56980;51.826;4.424;2022-07-04T04:06:59;102148.41;;;16.47;74.25
69713;BME280;56980;51.826;4.424;2022-07-04T04:09:24;102161.25;;;16.59;73.95
69713;BME280;56980;51.826;4.424;2022-07-04T04:11:51;102148.50;;;16.56;73.71
69713;BME280;56980;51.826;4.424;2022-07-04T04:14:17;102160.66;;;16.55;74.50
69713;BME280;56980;51.826;4.424;2022-07-04T04:16:42;102161.66;;;16.71;73.28
69713;BME280;56980;51.826;4.424;2022-07-04T04:19:08;102160.78;;;16.74;73.46
69713;BME280;56980;51.826;4.424;2022-07-04T04:21:34;102159.91;;;16.77;73.48
69713;BME280;56980;51.826;4.424;2022-07-04T04:24:00;102157.25;;;16.51;74.06
69713;BME280;56980;51.826;4.424;2022-07-04T04:26:26;102154.63;;;16.60;73.97
69713;BME280;56980;51.826;4.424;2022-07-04T04:28:51;102151.94;;;16.70;73.74
69713;BME280;56980;51.826;4.424;2022-07-04T04:31:16;102170.59;;;16.62;74.22
69713;BME280;56980;51.826;4.424;2022-07-04T04:33:42;102153.41;;;16.61;73.95
69713;BME280;56980;51.826;4.424;2022-07-04T04:36:07;102144.50;;;16.70;73.68
69713;BME280;56980;51.826;4.424;2022-07-04T04:38:33;102175.84;;;16.56;74.95
69713;BME280;56980;51.826;4.424;2022-07-04T04:40:58;102168.16;;;16.64;74.52
69713;BME280;56980;51.826;4.424;2022-07-04T04:43:23;102166.09;;;16.77;74.13
69713;BME280;56980;51.826;4.424;2022-07-04T04:45:49;102158.97;;;16.80;74.00
69713;BME280;56980;51.826;4.424;2022-07-04T04:48:14;102174.53;;;16.83;74.26
69713;BME280;56980;51.826;4.424;2022-07-04T04:50:39;102159.66;;;16.62;75.13
69713;BME280;56980;51.826;4.424;2022-07-04T04:53:05;102152.28;;;16.37;75.92
69713;BME280;56980;51.826;4.424;2022-07-04T04:55:30;102177.16;;;16.52;75.95
69713;BME280;56980;51.826;4.424;2022-07-04T04:57:56;102183.81;;;16.42;77.08
69713;BME280;56980;51.826;4.424;2022-07-04T05:00:21;102168.53;;;16.53;76.42
69713;BME280;56980;51.826;4.424;2022-07-04T05:02:46;102178.84;;;16.49;77.18
69713;BME280;56980;51.826;4.424;2022-07-04T05:05:12;102182.66;;;16.52;77.37
69713;BME280;56980;51.826;4.424;2022-07-04T05:07:37;102192.75;;;16.77;76.31
69713;BME280;56980;51.826;4.424;2022-07-04T05:10:03;102192.94;;;16.60;77.59
69713;BME280;56980;51.826;4.424;2022-07-04T05:12:29;102185.75;;;16.76;77.18
69713;BME280;56980;51.826;4.424;2022-07-04T05:14:54;102195.53;;;16.64;78.06
69713;BME280;56980;51.826;4.424;2022-07-04T05:17:20;102199.19;;;16.92;76.89
69713;BME280;56980;51.826;4.424;2022-07-04T05:19:45;102196.63;;;16.67;78.07
69713;BME280;56980;51.826;4.424;2022-07-04T05:22:10;102192.75;;;16.77;78.16
69713;BME280;56980;51.826;4.424;2022-07-04T05:24:36;102184.97;;;16.75;77.97
69713;BME280;56980;51.826;4.424;2022-07-04T05:27:06;102198.91;;;16.90;78.21
69713;BME280;56980;51.826;4.424;2022-07-04T05:29:32;102194.06;;;16.94;78.01
69713;BME280;56980;51.826;4.424;2022-07-04T05:31:57;102195.34;;;17.11;77.68
69713;BME280;56980;51.826;4.424;2022-07-04T05:34:22;102186.00;;;16.99;77.60
69713;BME280;56980;51.826;4.424;2022-07-04T05:36:48;102192.69;;;16.98;78.13
69713;BME280;56980;51.826;4.424;2022-07-04T05:39:13;102175.28;;;16.83;78.03
69713;BME280;56980;51.826;4.424;2022-07-04T05:41:38;102200.22;;;17.07;78.41
69713;BME280;56980;51.826;4.424;2022-07-04T05:44:04;102185.31;;;17.08;78.24
69713;BME280;56980;51.826;4.424;2022-07-04T05:46:29;102202.63;;;17.05;79.07
69713;BME280;56980;51.826;4.424;2022-07-04T05:48:55;102204.53;;;17.17;79.10
69713;BME280;56980;51.826;4.424;2022-07-04T05:51:21;102200.66;;;17.36;78.83
69713;BME280;56980;51.826;4.424;2022-07-04T05:53:46;102177.41;;;17.50;77.48
69713;BME280;56980;51.826;4.424;2022-07-04T05:56:12;102179.06;;;17.48;77.18
69713;BME280;56980;51.826;4.424;2022-07-04T05:58:38;102200.75;;;17.24;78.88
69713;BME280;56980;51.826;4.424;2022-07-04T06:01:03;102158.97;;;17.11;78.63
69713;BME280;56980;51.826;4.424;2022-07-04T06:03:28;102141.81;;;17.19;78.04
69713;BME280;56980;51.826;4.424;2022-07-04T06:05:56;102177.84;;;17.49;77.54
69713;BME280;56980;51.826;4.424;2022-07-04T06:08:22;102169.59;;;17.30;78.68
69713;BME280;56980;51.826;4.424;2022-07-04T06:10:48;102183.66;;;17.51;78.68
69713;BME280;56980;51.826;4.424;2022-07-04T06:13:13;102146.00;;;17.42;77.66
69713;BME280;56980;51.826;4.424;2022-07-04T06:15:39;102169.13;;;17.81;76.61
69713;BME280;56980;51.826;4.424;2022-07-04T06:18:04;102175.84;;;17.89;76.40
69713;BME280;56980;51.826;4.424;2022-07-04T06:20:30;102153.75;;;17.84;76.28
69713;BME280;56980;51.826;4.424;2022-07-04T06:22:55;102168.66;;;17.83;76.19
69713;BME280;56980;51.826;4.424;2022-07-04T06:25:21;102180.56;;;18.07;75.93
69713;BME280;56980;51.826;4.424;2022-07-04T06:27:48;102172.50;;;18.12;75.71
69713;BME280;56980;51.826;4.424;2022-07-04T06:30:15;102174.94;;;18.10;75.68
69713;BME280;56980;51.826;4.424;2022-07-04T06:35:07;102163.34;;;17.88;76.02
69713;BME280;56980;51.826;4.424;2022-07-04T06:37:51;102179.50;;;17.95;76.97
69713;BME280;56980;51.826;4.424;2022-07-04T06:40:16;102178.13;;;18.09;75.81
69713;BME280;56980;51.826;4.424;2022-07-04T06:42:42;102181.34;;;18.07;76.34
69713;BME280;56980;51.826;4.424;2022-07-04T06:45:08;102156.63;;;17.98;76.35
69713;BME280;56980;51.826;4.424;2022-07-04T06:47:33;102170.34;;;18.07;76.30
69713;BME280;56980;51.826;4.424;2022-07-04T06:49:58;102179.81;;;18.52;75.31
69713;BME280;56980;51.826;4.424;2022-07-04T06:52:24;102184.72;;;18.57;75.32
69713;BME280;56980;51.826;4.424;2022-07-04T06:54:49;102190.16;;;18.48;75.86
69713;BME280;56980;51.826;4.424;2022-07-04T06:57:14;102175.09;;;18.62;74.17
69713;BME280;56980;51.826;4.424;2022-07-04T06:59:40;102173.56;;;18.42;74.55
69713;BME280;56980;51.826;4.424;2022-07-04T07:02:05;102192.66;;;19.06;73.30
69713;BME280;56980;51.826;4.424;2022-07-04T07:04:30;102164.03;;;19.31;71.68
69713;BME280;56980;51.826;4.424;2022-07-04T07:06:55;102198.03;;;19.43;72.01
69713;BME280;56980;51.826;4.424;2022-07-04T07:09:21;102196.34;;;19.45;71.47
69713;BME280;56980;51.826;4.424;2022-07-04T07:11:46;102184.16;;;19.37;71.98
69713;BME280;56980;51.826;4.424;2022-07-04T07:14:11;102168.66;;;19.16;72.05
69713;BME280;56980;51.826;4.424;2022-07-04T07:16:37;102195.41;;;19.48;71.74
69713;BME280;56980;51.826;4.424;2022-07-04T07:19:02;102184.25;;;19.52;72.12
69713;BME280;56980;51.826;4.424;2022-07-04T07:21:27;102170.16;;;19.83;70.60
69713;BME280;56980;51.826;4.424;2022-07-04T07:23:53;102178.00;;;19.99;67.38
69713;BME280;56980;51.826;4.424;2022-07-04T07:26:18;102188.94;;;20.08;67.20
69713;BME280;56980;51.826;4.424;2022-07-04T07:28:44;102207.09;;;20.29;66.50
69713;BME280;56980;51.826;4.424;2022-07-04T07:31:09;102201.41;;;20.18;66.95
69713;BME280;56980;51.826;4.424;2022-07-04T07:33:35;102203.78;;;20.64;66.88
69713;BME280;56980;51.826;4.424;2022-07-04T07:36:00;102186.78;;;20.80;65.38
69713;BME280;56980;51.826;4.424;2022-07-04T07:38:26;102196.16;;;20.88;64.91
69713;BME280;56980;51.826;4.424;2022-07-04T07:40:51;102193.53;;;20.79;64.41
69713;BME280;56980;51.826;4.424;2022-07-04T07:43:16;102185.34;;;20.99;64.84
69713;BME280;56980;51.826;4.424;2022-07-04T07:45:42;102196.91;;;21.32;63.93
69713;BME280;56980;51.826;4.424;2022-07-04T07:48:07;102187.53;;;21.45;63.45
69713;BME280;56980;51.826;4.424;2022-07-04T07:50:32;102213.00;;;21.19;63.68
69713;BME280;56980;51.826;4.424;2022-07-04T07:52:58;102209.38;;;21.28;62.98
69713;BME280;56980;51.826;4.424;2022-07-04T07:55:23;102200.34;;;20.39;62.89
69713;BME280;56980;51.826;4.424;2022-07-04T07:57:48;102212.69;;;20.88;63.87
69713;BME280;56980;51.826;4.424;2022-07-04T08:00:15;102206.44;;;21.17;63.23
69713;BME280;56980;51.826;4.424;2022-07-04T08:02:41;102208.38;;;21.46;61.11
69713;BME280;56980;51.826;4.424;2022-07-04T08:05:25;102212.94;;;21.69;61.08
69713;BME280;56980;51.826;4.424;2022-07-04T08:07:50;102209.22;;;21.52;60.20
69713;BME280;56980;51.826;4.424;2022-07-04T08:10:16;102224.09;;;21.40;60.03
69713;BME280;56980;51.826;4.424;2022-07-04T08:12:41;102218.59;;;21.25;58.63
69713;BME280;56980;51.826;4.424;2022-07-04T08:15:07;102218.09;;;21.12;58.31
69713;BME280;56980;51.826;4.424;2022-07-04T08:17:33;102226.66;;;21.63;59.46
69713;BME280;56980;51.826;4.424;2022-07-04T08:20:01;102236.94;;;21.63;57.57
69713;BME280;56980;51.826;4.424;2022-07-04T08:22:26;102234.28;;;21.33;57.32
69713;BME280;56980;51.826;4.424;2022-07-04T08:24:52;102237.03;;;21.33;58.64
69713;BME280;56980;51.826;4.424;2022-07-04T08:27:17;102230.53;;;21.37;59.48
69713;BME280;56980;51.826;4.424;2022-07-04T08:29:43;102226.47;;;21.32;59.48
69713;BME280;56980;51.826;4.424;2022-07-04T08:32:08;102239.84;;;21.54;60.44
69713;BME280;56980;51.826;4.424;2022-07-04T08:34:34;102256.41;;;21.54;59.59
69713;BME280;56980;51.826;4.424;2022-07-04T08:37:00;102250.13;;;21.39;57.61
69713;BME280;56980;51.826;4.424;2022-07-04T08:39:26;102250.34;;;21.70;57.46
69713;BME280;56980;51.826;4.424;2022-07-04T08:41:52;102225.22;;;21.48;55.87
69713;BME280;56980;51.826;4.424;2022-07-04T08:44:21;102247.66;;;21.41;54.97
69713;BME280;56980;51.826;4.424;2022-07-04T08:46:50;102253.47;;;21.13;57.55
69713;BME280;56980;51.826;4.424;2022-07-04T08:49:27;102238.75;;;20.87;59.28
69713;BME280;56980;51.826;4.424;2022-07-04T08:52:01;102225.03;;;20.48;60.16
69713;BME280;56980;51.826;4.424;2022-07-04T08:54:29;102250.91;;;20.95;60.12
69713;BME280;56980;51.826;4.424;2022-07-04T08:57:14;102250.44;;;21.11;60.96
69713;BME280;56980;51.826;4.424;2022-07-04T08:59:59;102249.28;;;21.32;60.64
69713;BME280;56980;51.826;4.424;2022-07-04T09:02:27;102253.94;;;21.41;59.47
69713;BME280;56980;51.826;4.424;2022-07-04T09:04:53;102243.50;;;21.65;58.46
69713;BME280;56980;51.826;4.424;2022-07-04T09:07:19;102257.34;;;21.36;59.50
69713;BME280;56980;51.826;4.424;2022-07-04T09:09:44;102241.81;;;21.88;58.78
69713;BME280;56980;51.826;4.424;2022-07-04T09:12:11;102250.63;;;22.27;57.06
69713;BME280;56980;51.826;4.424;2022-07-04T09:14:37;102241.66;;;22.58;53.07
69713;BME280;56980;51.826;4.424;2022-07-04T09:17:04;102254.97;;;22.34;53.78
69713;BME280;56980;51.826;4.424;2022-07-04T09:19:30;102248.44;;;22.37;51.06
69713;BME280;56980;51.826;4.424;2022-07-04T09:21:55;102231.91;;;22.63;50.53
69713;BME280;56980;51.826;4.424;2022-07-04T09:24:48;102256.28;;;22.90;49.48
69713;BME280;56980;51.826;4.424;2022-07-04T09:27:32;102258.03;;;22.87;47.08
69713;BME280;56980;51.826;4.424;2022-07-04T09:29:59;102251.00;;;22.86;47.97
69713;BME280;56980;51.826;4.424;2022-07-04T09:32:48;102256.59;;;22.72;47.25
69713;BME280;56980;51.826;4.424;2022-07-04T09:35:23;102253.31;;;22.22;49.97
69713;BME280;56980;51.826;4.424;2022-07-04T09:37:53;102249.00;;;22.41;48.96
69713;BME280;56980;51.826;4.424;2022-07-04T09:40:39;102252.66;;;22.32;51.40
69713;BME280;56980;51.826;4.424;2022-07-04T09:43:24;102236.16;;;22.38;51.19
69713;BME280;56980;51.826;4.424;2022-07-04T09:45:57;102244.09;;;22.30;50.26
69713;BME280;56980;51.826;4.424;2022-07-04T09:48:23;102243.91;;;22.13;50.56
69713;BME280;56980;51.826;4.424;2022-07-04T09:50:49;102259.09;;;22.24;51.01
69713;BME280;56980;51.826;4.424;2022-07-04T09:53:14;102251.09;;;22.05;51.89
69713;BME280;56980;51.826;4.424;2022-07-04T09:55:40;102244.75;;;21.99;49.84
69713;BME280;56980;51.826;4.424;2022-07-04T09:58:14;102251.59;;;22.50;48.21
69713;BME280;56980;51.826;4.424;2022-07-04T10:00:42;102252.31;;;22.45;47.64
69713;BME280;56980;51.826;4.424;2022-07-04T10:06:02;102251.16;;;21.76;50.37
69713;BME280;56980;51.826;4.424;2022-07-04T10:08:28;102252.34;;;21.90;48.73
69713;BME280;56980;51.826;4.424;2022-07-04T10:10:58;102253.09;;;21.70;49.64
69713;BME280;56980;51.826;4.424;2022-07-04T10:13:24;102252.63;;;22.27;48.59
69713;BME280;56980;51.826;4.424;2022-07-04T10:15:50;102251.28;;;22.42;49.36
69713;BME280;56980;51.826;4.424;2022-07-04T10:18:18;102255.38;;;22.27;48.52
69713;BME280;56980;51.826;4.424;2022-07-04T10:20:44;102217.16;;;22.45;47.93
69713;BME280;56980;51.826;4.424;2022-07-04T10:23:10;102233.09;;;23.08;48.56
69713;BME280;56980;51.826;4.424;2022-07-04T10:25:36;102249.28;;;23.20;49.16
69713;BME280;56980;51.826;4.424;2022-07-04T10:28:01;102244.03;;;22.97;48.31
69713;BME280;56980;51.826;4.424;2022-07-04T10:30:32;102253.19;;;23.08;47.29
69713;BME280;56980;51.826;4.424;2022-07-04T10:33:00;102244.53;;;23.26;47.98
69713;BME280;56980;51.826;4.424;2022-07-04T10:38:15;102244.75;;;22.20;48.45
69713;BME280;56980;51.826;4.424;2022-07-04T10:40:47;102249.63;;;22.30;47.91
69713;BME280;56980;51.826;4.424;2022-07-04T10:51:41;102239.94;;;22.86;47.41
69713;BME280;56980;51.826;4.424;2022-07-04T10:54:34;102236.44;;;22.66;47.39
69713;BME280;56980;51.826;4.424;2022-07-04T10:57:26;102245.34;;;23.01;45.78
69713;BME280;56980;51.826;4.424;2022-07-04T11:05:08;102219.34;;;22.87;47.26
69713;BME280;56980;51.826;4.424;2022-07-04T11:10:22;102237.22;;;22.66;45.08
69713;BME280;56980;51.826;4.424;2022-07-04T11:18:01;102234.50;;;22.98;45.48
69713;BME280;56980;51.826;4.424;2022-07-04T11:20:29;102240.25;;;22.68;45.43
69713;BME280;56980;51.826;4.424;2022-07-04T11:23:08;102235.44;;;22.43;46.80
69713;BME280;56980;51.826;4.424;2022-07-04T11:25:35;102223.63;;;22.88;47.64
69713;BME280;56980;51.826;4.424;2022-07-04T11:28:20;102237.91;;;22.61;45.48
69713;BME280;56980;51.826;4.424;2022-07-04T11:30:52;102217.50;;;22.53;46.31
69713;BME280;56980;51.826;4.424;2022-07-04T11:33:20;102236.25;;;22.95;45.72
69713;BME280;56980;51.826;4.424;2022-07-04T11:36:04;102237.81;;;22.30;46.42
69713;BME280;56980;51.826;4.424;2022-07-04T11:41:08;102225.78;;;23.42;45.40
69713;BME280;56980;51.826;4.424;2022-07-04T11:43:52;102224.06;;;23.98;43.43
69713;BME280;56980;51.826;4.424;2022-07-04T11:46:36;102228.53;;;24.43;43.73
69713;BME280;56980;51.826;4.424;2022-07-04T11:49:11;102226.53;;;24.44;40.98
69713;BME280;56980;51.826;4.424;2022-07-04T11:51:47;102211.66;;;24.53;42.72
69713;BME280;56980;51.826;4.424;2022-07-04T11:54:12;102216.22;;;24.44;43.62
69713;BME280;56980;51.826;4.424;2022-07-04T11:56:38;102215.09;;;24.14;42.43
69713;BME280;56980;51.826;4.424;2022-07-04T11:59:11;102214.31;;;24.14;44.44
69713;BME280;56980;51.826;4.424;2022-07-04T12:01:37;102215.97;;;24.59;43.82
69713;BME280;56980;51.826;4.424;2022-07-04T12:06:42;102198.09;;;24.88;40.46
69713;BME280;56980;51.826;4.424;2022-07-04T12:09:07;102189.00;;;24.37;41.15
69713;BME280;56980;51.826;4.424;2022-07-04T12:11:58;102204.88;;;24.87;39.95
69713;BME280;56980;51.826;4.424;2022-07-04T12:14:25;102203.88;;;24.79;38.98
69713;BME280;56980;51.826;4.424;2022-07-04T12:17:17;102190.50;;;24.72;41.09
69713;BME280;56980;51.826;4.424;2022-07-04T12:19:51;102182.97;;;24.89;39.36
69713;BME280;56980;51.826;4.424;2022-07-04T12:24:51;102179.66;;;24.52;42.46
69713;BME280;56980;51.826;4.424;2022-07-04T12:27:18;102174.63;;;24.72;42.92
69713;BME280;56980;51.826;4.424;2022-07-04T12:29:51;102178.69;;;24.77;41.46
69713;BME280;56980;51.826;4.424;2022-07-04T12:32:17;102171.88;;;24.78;40.65
69713;BME280;56980;51.826;4.424;2022-07-04T12:34:43;102174.38;;;24.42;42.25
69713;BME280;56980;51.826;4.424;2022-07-04T12:37:10;102160.78;;;24.89;43.18
69713;BME280;56980;51.826;4.424;2022-07-04T12:39:38;102189.28;;;25.12;41.13
69713;BME280;56980;51.826;4.424;2022-07-04T12:42:16;102168.88;;;24.98;41.20
69713;BME280;56980;51.826;4.424;2022-07-04T12:44:43;102170.38;;;24.99;41.83
69713;BME280;56980;51.826;4.424;2022-07-04T12:47:10;102182.06;;;24.05;41.67
69713;BME280;56980;51.826;4.424;2022-07-04T12:49:37;102177.75;;;23.93;43.14
69713;BME280;56980;51.826;4.424;2022-07-04T12:52:11;102167.44;;;23.93;41.44
69713;BME280;56980;51.826;4.424;2022-07-04T12:54:37;102178.91;;;24.45;42.03
69713;BME280;56980;51.826;4.424;2022-07-04T12:57:14;102168.75;;;24.09;41.64
69713;BME280;56980;51.826;4.424;2022-07-04T12:59:41;102195.50;;;24.23;43.40
69713;BME280;56980;51.826;4.424;2022-07-04T13:02:08;102177.88;;;24.26;42.56
69713;BME280;56980;51.826;4.424;2022-07-04T13:04:34;102167.06;;;24.39;41.52
69713;BME280;56980;51.826;4.424;2022-07-04T13:07:14;102142.63;;;24.66;41.02
69713;BME280;56980;51.826;4.424;2022-07-04T13:09:42;102148.94;;;24.55;41.92
69713;BME280;56980;51.826;4.424;2022-07-04T13:12:08;102162.81;;;24.83;40.01
69713;BME280;56980;51.826;4.424;2022-07-04T13:14:56;102174.94;;;24.91;41.45
69713;BME280;56980;51.826;4.424;2022-07-04T13:17:23;102166.84;;;24.99;41.84
69713;BME280;56980;51.826;4.424;2022-07-04T13:19:49;102165.56;;;24.72;41.08
69713;BME280;56980;51.826;4.424;2022-07-04T13:22:17;102184.72;;;24.53;41.65
69713;BME280;56980;51.826;4.424;2022-07-04T13:24:43;102183.94;;;24.53;43.75
69713;BME280;56980;51.826;4.424;2022-07-04T13:27:08;102154.72;;;24.46;40.77
69713;BME280;56980;51.826;4.424;2022-07-04T13:29:33;102166.31;;;24.56;41.58